Time;durP1;ratioP1;P1;durP2;ratioP2;P2;SDS_P1;SDS_P2;PMS_P1;PMS_P2;Temp;Humidity;BMP_temperature;BMP_pressure;BME280_temperature;BME280_humidity;BME280_pressure;Samples;Min_cycle;Max_cycle;Signal;HPM_P1;HPM_P2
2023/01/28 00:01:06;;;;;;;21.87;16.70;;;28.60;70.30;;;;;;5049208;28;20639;-73
2023/01/28 00:03:34;;;;;;;18.17;15.47;;;28.60;70.20;;;;;;5047442;28;20195;-73
2023/01/28 00:06:06;;;;;;;19.10;16.07;;;29.10;68.90;;;;;;5048900;28;20184;-72
2023/01/28 00:08:33;;;;;;;19.27;14.50;;;29.40;67.00;;;;;;5049125;28;20208;-71
2023/01/28 00:11:05;;;;;;;19.57;15.13;;;29.70;66.00;;;;;;5047900;28;20555;-69
2023/01/28 00:13:33;;;;;;;16.93;14.87;;;29.80;66.00;;;;;;5048597;28;20226;-73
2023/01/28 00:16:07;;;;;;;19.47;14.20;;;29.80;65.30;;;;;;5050115;28;20225;-73
2023/01/28 00:18:35;;;;;;;15.40;13.77;;;29.70;65.70;;;;;;5047691;28;20246;-72
2023/01/28 00:21:11;;;;;;;21.40;15.03;;;29.90;65.20;;;;;;5047913;28;20374;-70
2023/01/28 00:23:40;;;;;;;18.83;13.77;;;30.10;65.40;;;;;;5044669;28;20272;-71
2023/01/28 00:26:13;;;;;;;17.73;13.40;;;29.80;65.00;;;;;;5047953;28;20582;-70
2023/01/28 00:28:41;;;;;;;16.23;13.50;;;30.00;65.20;;;;;;5047549;28;20219;-72
2023/01/28 00:31:16;;;;;;;15.13;13.23;;;30.30;63.90;;;;;;5047264;28;20211;-70
2023/01/28 00:33:44;;;;;;;16.70;13.13;;;30.50;63.80;;;;;;5045600;28;20180;-70
2023/01/28 00:36:13;;;;;;;15.93;13.63;;;30.70;63.00;;;;;;5052402;28;20275;-71
2023/01/28 00:38:41;;;;;;;14.97;12.83;;;30.60;64.30;;;;;;5050281;28;20176;-71
2023/01/28 00:41:13;;;;;;;16.27;14.07;;;30.60;63.30;;;;;;5053524;28;20199;-73
2023/01/28 00:43:42;;;;;;;15.37;13.50;;;30.80;63.00;;;;;;5051932;28;20249;-77
2023/01/28 00:46:11;;;;;;;15.23;12.97;;;30.70;62.90;;;;;;5052986;28;20188;-73
2023/01/28 00:48:40;;;;;;;17.10;13.10;;;30.90;62.70;;;;;;5052319;28;20211;-74
2023/01/28 00:51:09;;;;;;;16.83;13.00;;;31.00;61.90;;;;;;5052221;28;20188;-70
2023/01/28 00:53:38;;;;;;;16.10;13.80;;;30.80;62.90;;;;;;5050265;28;20245;-72
2023/01/28 00:56:08;;;;;;;17.60;13.40;;;30.80;63.10;;;;;;5052824;28;20188;-73
2023/01/28 00:58:35;;;;;;;18.02;13.98;;;31.10;61.30;;;;;;5054326;28;20187;-74
2023/01/28 01:01:21;;;;;;;18.08;13.65;;;30.80;62.90;;;;;;5051887;28;20311;-71
2023/01/28 01:03:56;;;;;;;16.37;13.33;;;30.80;63.00;;;;;;5052925;28;20250;-73
2023/01/28 01:06:25;;;;;;;18.60;13.67;;;31.10;62.70;;;;;;5053730;28;20175;-72
2023/01/28 01:08:53;;;;;;;21.95;15.20;;;31.00;63.00;;;;;;5053698;28;20752;-72
2023/01/28 01:11:21;;;;;;;16.63;14.50;;;31.20;62.90;;;;;;5051943;28;20194;-72
2023/01/28 01:13:56;;;;;;;20.23;14.38;;;31.10;64.10;;;;;;5053731;28;20180;-71
2023/01/28 01:16:32;;;;;;;18.08;14.55;;;31.40;62.30;;;;;;5053468;28;20190;-73
2023/01/28 01:18:59;;;;;;;16.95;14.00;;;31.40;62.80;;;;;;5052763;28;20192;-71
2023/01/28 01:21:28;;;;;;;21.42;14.48;;;31.40;62.50;;;;;;5052465;28;20696;-72
2023/01/28 01:23:56;;;;;;;21.33;13.70;;;31.50;62.10;;;;;;5053417;28;20190;-72
2023/01/28 01:26:26;;;;;;;17.67;13.00;;;31.30;62.50;;;;;;5053224;28;20226;-73
2023/01/28 01:28:53;;;;;;;17.25;14.30;;;31.30;62.60;;;;;;5053355;28;20289;-74
2023/01/28 01:31:21;;;;;;;15.63;13.63;;;31.70;62.50;;;;;;5053053;28;20218;-74
2023/01/28 01:33:51;;;;;;;17.00;12.65;;;31.90;62.00;;;;;;5053458;28;20192;-73
2023/01/28 01:36:20;;;;;;;16.40;12.18;;;31.80;61.60;;;;;;5053100;28;20574;-72
2023/01/28 01:38:51;;;;;;;17.15;13.32;;;31.30;62.40;;;;;;5053032;28;20609;-72
2023/01/28 01:41:30;;;;;;;14.80;12.53;;;31.30;63.60;;;;;;5052884;28;20247;-70
2023/01/28 01:44:05;;;;;;;16.95;12.45;;;31.50;62.70;;;;;;5051859;28;20270;-75
2023/01/28 01:46:50;;;;;;;15.48;11.85;;;31.60;62.70;;;;;;5052301;28;20184;-76
2023/01/28 01:49:25;;;;;;;17.52;11.82;;;31.80;62.00;;;;;;5049122;28;20302;-74
2023/01/28 01:52:02;;;;;;;16.95;11.65;;;31.80;62.10;;;;;;5052759;28;20704;-73
2023/01/28 01:54:33;;;;;;;15.27;11.68;;;31.70;62.10;;;;;;5053173;28;20271;-72
2023/01/28 01:57:02;;;;;;;16.00;11.07;;;31.80;61.60;;;;;;5052569;28;20176;-77
2023/01/28 01:59:32;;;;;;;21.00;10.45;;;31.60;61.90;;;;;;5052684;28;20274;-68
2023/01/28 02:02:04;;;;;;;14.85;10.25;;;31.60;62.20;;;;;;5053001;28;20530;-69
2023/01/28 02:04:38;;;;;;;14.60;10.68;;;31.60;62.10;;;;;;5053090;28;20556;-69
2023/01/28 02:07:08;;;;;;;14.57;9.52;;;31.90;62.00;;;;;;5052720;28;20182;-69
2023/01/28 02:09:37;;;;;;;12.63;8.93;;;31.50;63.50;;;;;;5052884;28;20571;-70
2023/01/28 02:12:12;;;;;;;12.48;8.02;;;31.70;62.50;;;;;;5052317;28;20267;-70
2023/01/28 02:14:44;;;;;;;12.93;8.13;;;31.70;63.00;;;;;;5052610;28;20207;-70
2023/01/28 02:17:13;;;;;;;14.57;8.25;;;31.80;61.90;;;;;;5052403;28;20234;-74
2023/01/28 02:19:55;;;;;;;13.30;6.70;;;31.50;62.40;;;;;;5052576;28;20194;-73
2023/01/28 02:22:51;;;;;;;13.98;6.90;;;31.10;63.80;;;;;;5046553;28;20242;-73
2023/01/28 02:25:36;;;;;;;11.52;5.18;;;31.30;63.90;;;;;;5047837;28;20180;-71
2023/01/28 02:28:10;;;;;;;12.57;5.00;;;31.30;64.50;;;;;;5051902;28;20182;-72
2023/01/28 02:30:48;;;;;;;10.23;4.00;;;31.70;63.70;;;;;;5052233;28;20212;-72
2023/01/28 02:33:23;;;;;;;9.43;3.95;;;31.30;64.10;;;;;;5051929;28;20180;-74
2023/01/28 02:35:54;;;;;;;9.23;3.83;;;31.50;63.40;;;;;;5051818;28;20171;-71
2023/01/28 02:38:32;;;;;;;10.82;3.70;;;31.40;64.40;;;;;;5050693;28;20194;-72
2023/01/28 02:41:09;;;;;;;11.63;3.80;;;31.60;63.30;;;;;;5050734;28;20266;-73
2023/01/28 02:43:40;;;;;;;13.18;3.45;;;31.50;64.20;;;;;;5052385;28;20638;-70
2023/01/28 02:49:21;;;;;;;8.32;2.78;;;31.90;62.50;;;;;;5051813;28;20799;-70
2023/01/28 02:52:18;;;;;;;7.63;2.35;;;31.90;62.30;;;;;;5049094;28;20226;-70
2023/01/28 02:55:04;;;;;;;9.38;2.80;;;31.90;62.20;;;;;;5050941;28;20237;-71
2023/01/28 02:57:43;;;;;;;12.73;2.40;;;32.00;62.70;;;;;;5051581;28;20176;-71
2023/01/28 03:00:13;;;;;;;10.02;3.00;;;31.80;63.10;;;;;;5051352;28;20191;-70
2023/01/28 03:02:55;;;;;;;10.20;2.90;;;31.90;63.00;;;;;;5051969;28;20172;-71
2023/01/28 03:05:28;;;;;;;7.18;2.55;;;31.60;63.70;;;;;;5050021;28;20187;-69
2023/01/28 03:07:56;;;;;;;11.70;2.13;;;31.30;63.80;;;;;;5051654;28;20172;-71
2023/01/28 03:10:25;;;;;;;10.45;2.15;;;31.10;64.00;;;;;;5051419;28;20212;-69
2023/01/28 03:38:47;;;;;;;9.45;2.47;;;31.20;65.80;;;;;;5049653;28;20322;-73
2023/01/28 03:41:21;;;;;;;12.57;2.38;;;31.40;65.20;;;;;;5047945;28;20269;-70
2023/01/28 03:43:50;;;;;;;11.60;2.70;;;31.70;65.60;;;;;;5050828;28;20179;-71
2023/01/28 03:46:17;;;;;;;13.20;2.72;;;31.60;65.30;;;;;;5050974;28;20191;-70
2023/01/28 03:48:45;;;;;;;8.10;2.28;;;31.80;64.80;;;;;;5049283;28;20199;-70
2023/01/28 03:51:13;;;;;;;6.32;2.35;;;31.60;63.60;;;;;;5049994;28;20676;-73
2023/01/28 03:53:40;;;;;;;9.83;2.03;;;31.40;62.90;;;;;;5050740;28;20309;-71
2023/01/28 03:56:07;;;;;;;9.93;1.88;;;31.50;62.20;;;;;;5048911;28;20188;-69
2023/01/28 03:58:55;;;;;;;5.40;2.00;;;31.00;62.20;;;;;;5048574;28;20194;-76
2023/01/28 04:01:23;;;;;;;4.90;1.70;;;31.30;61.50;;;;;;5049175;28;21483;-73
2023/01/28 04:03:50;;;;;;;6.75;2.08;;;31.30;61.80;;;;;;5049610;28;20516;-78
2023/01/28 04:06:20;;;;;;;9.20;2.30;;;31.30;60.60;;;;;;5050723;28;20554;-73
2023/01/28 04:08:51;;;;;;;8.07;2.15;;;31.20;62.00;;;;;;5052664;28;21386;-69
2023/01/28 04:11:20;;;;;;;8.98;2.08;;;31.30;62.80;;;;;;5053489;28;20215;-70
2023/01/28 04:13:49;;;;;;;8.23;2.03;;;31.20;62.40;;;;;;5054576;28;20178;-73
2023/01/28 04:16:17;;;;;;;9.57;2.75;;;31.20;62.30;;;;;;5049869;28;20188;-68
2023/01/28 04:18:45;;;;;;;5.45;2.20;;;31.50;61.60;;;;;;5054303;28;20703;-71
2023/01/28 04:21:12;;;;;;;14.10;2.28;;;31.80;60.00;;;;;;5053699;28;20176;-71
2023/01/28 04:23:40;;;;;;;10.02;2.20;;;31.90;58.90;;;;;;5053804;28;20625;-77
2023/01/28 04:26:07;;;;;;;8.25;2.30;;;31.90;59.00;;;;;;5051472;28;20191;-70
2023/01/28 04:28:34;;;;;;;9.27;2.38;;;32.00;59.00;;;;;;5052138;28;20277;-71
2023/01/28 04:31:02;;;;;;;7.82;1.95;;;32.30;58.90;;;;;;5051976;28;20195;-71
2023/01/28 04:33:29;;;;;;;10.63;2.30;;;32.10;58.80;;;;;;5053538;28;20207;-71
2023/01/28 04:35:56;;;;;;;7.78;2.08;;;32.30;58.90;;;;;;5054417;28;20206;-70
2023/01/28 04:38:24;;;;;;;5.75;2.17;;;31.70;59.80;;;;;;5053730;28;20206;-77
2023/01/28 04:40:52;;;;;;;8.93;1.95;;;32.00;59.60;;;;;;5054985;28;20658;-69
2023/01/28 04:43:20;;;;;;;8.65;2.35;;;32.00;59.10;;;;;;5052144;28;20188;-81
2023/01/28 04:45:48;;;;;;;8.63;2.35;;;32.20;59.10;;;;;;5053219;28;20525;-70
2023/01/28 04:48:18;;;;;;;9.57;2.38;;;32.00;58.60;;;;;;5053797;28;20180;-71
2023/01/28 04:50:45;;;;;;;8.52;2.00;;;32.50;57.90;;;;;;5049298;28;20211;-73
2023/01/28 04:53:13;;;;;;;8.65;2.33;;;32.70;57.60;;;;;;5054606;28;20319;-69
2023/01/28 04:55:40;;;;;;;8.40;2.50;;;33.00;57.00;;;;;;5054245;28;20187;-73
2023/01/28 04:58:08;;;;;;;6.53;2.33;;;32.90;57.40;;;;;;5054139;28;20647;-73
2023/01/28 05:00:35;;;;;;;7.32;2.08;;;32.70;57.50;;;;;;5054760;28;20195;-79
2023/01/28 05:03:02;;;;;;;6.57;2.05;;;32.60;58.20;;;;;;5055412;28;20203;-78
2023/01/28 05:05:30;;;;;;;17.48;2.50;;;32.10;58.70;;;;;;5054148;28;20191;-73
2023/01/28 05:07:58;;;;;;;8.85;2.40;;;31.80;59.20;;;;;;5051788;28;20197;-69
2023/01/28 05:10:27;;;;;;;9.80;2.92;;;32.10;58.70;;;;;;5051508;28;20226;-70
2023/01/28 05:12:54;;;;;;;8.98;2.03;;;32.60;57.60;;;;;;5053241;28;20172;-70
2023/01/28 05:15:22;;;;;;;10.38;2.00;;;32.30;57.50;;;;;;5053498;28;20210;-74
2023/01/28 05:17:49;;;;;;;9.82;2.20;;;32.50;57.10;;;;;;5053882;28;20594;-69
2023/01/28 05:20:18;;;;;;;10.52;2.33;;;32.50;57.70;;;;;;5051816;28;20229;-70
2023/01/28 05:22:45;;;;;;;7.90;1.90;;;32.70;57.00;;;;;;5054289;28;20556;-67
2023/01/28 05:25:13;;;;;;;11.35;2.00;;;32.30;57.60;;;;;;5051867;28;20188;-77
2023/01/28 05:27:41;;;;;;;11.95;2.53;;;31.90;59.10;;;;;;5058023;28;20715;-74
2023/01/28 05:30:09;;;;;;;9.18;2.30;;;31.70;60.50;;;;;;5053652;28;20227;-79
2023/01/28 05:32:36;;;;;;;11.55;2.60;;;32.30;59.30;;;;;;5055427;28;20180;-75
2023/01/28 05:35:03;;;;;;;9.13;2.25;;;31.90;59.20;;;;;;5055329;28;20180;-74
2023/01/28 05:37:31;;;;;;;10.57;2.20;;;31.80;60.30;;;;;;5053320;28;20191;-72
2023/01/28 05:39:58;;;;;;;9.43;2.33;;;32.10;59.90;;;;;;5055120;28;20179;-72
2023/01/28 05:42:25;;;;;;;10.80;2.42;;;32.30;59.40;;;;;;5050638;28;20550;-77
2023/01/28 05:44:53;;;;;;;8.55;2.10;;;32.30;59.10;;;;;;5053270;28;20260;-74
2023/01/28 05:47:20;;;;;;;12.07;2.53;;;32.50;58.60;;;;;;5053267;28;20539;-72
2023/01/28 05:49:47;;;;;;;10.07;2.33;;;32.60;58.40;;;;;;5055663;28;20215;-77
2023/01/28 05:52:15;;;;;;;10.20;2.40;;;32.60;58.30;;;;;;5050524;28;20576;-77
2023/01/28 05:54:43;;;;;;;12.13;2.53;;;33.00;57.20;;;;;;5053025;28;20940;-75
2023/01/28 05:57:10;;;;;;;8.73;2.65;;;32.60;57.80;;;;;;5051336;28;20972;-75
2023/01/28 05:59:38;;;;;;;11.02;2.58;;;32.60;57.80;;;;;;5050478;28;20179;-74
2023/01/28 06:02:05;;;;;;;9.60;2.50;;;32.90;56.90;;;;;;5052318;28;20188;-76
2023/01/28 06:04:33;;;;;;;16.05;2.75;;;32.80;57.60;;;;;;5053500;28;20183;-74
2023/01/28 06:07:00;;;;;;;9.77;2.38;;;32.60;58.30;;;;;;5052122;28;20177;-75
2023/01/28 06:09:27;;;;;;;15.65;3.03;;;32.60;59.20;;;;;;5051631;28;20203;-72
2023/01/28 06:11:54;;;;;;;11.52;2.50;;;32.20;59.60;;;;;;5051451;28;20171;-81
2023/01/28 06:14:22;;;;;;;8.82;2.78;;;32.50;59.40;;;;;;5056551;28;20199;-71
2023/01/28 06:16:51;;;;;;;11.88;2.63;;;32.00;60.30;;;;;;5052494;28;20172;-78
2023/01/28 06:19:18;;;;;;;13.60;2.75;;;32.20;60.10;;;;;;5055851;28;20186;-73
2023/01/28 06:21:45;;;;;;;13.30;2.35;;;31.40;62.50;;;;;;5054372;28;20176;-79
2023/01/28 06:24:13;;;;;;;10.40;2.58;;;31.10;63.10;;;;;;5053865;28;20184;-68
2023/01/28 06:26:40;;;;;;;12.52;2.88;;;31.60;62.80;;;;;;5050760;28;20184;-72
2023/01/28 06:29:08;;;;;;;18.00;3.15;;;31.90;61.80;;;;;;5053796;28;20257;-77
2023/01/28 06:31:35;;;;;;;10.60;2.65;;;31.70;62.60;;;;;;5051373;28;20664;-72
2023/01/28 06:34:03;;;;;;;11.57;2.90;;;31.00;63.80;;;;;;5052425;28;20321;-72
2023/01/28 06:36:30;;;;;;;13.63;3.25;;;30.80;65.40;;;;;;5050697;28;20196;-75
2023/01/28 06:38:58;;;;;;;15.27;3.47;;;31.30;64.10;;;;;;5053647;28;20192;-74
2023/01/28 06:41:25;;;;;;;12.90;2.83;;;31.00;64.60;;;;;;5051729;28;20692;-76
2023/01/28 06:43:52;;;;;;;15.90;3.40;;;30.90;65.70;;;;;;5059006;28;20610;-73
2023/01/28 06:46:20;;;;;;;14.30;2.83;;;30.80;65.70;;;;;;5051670;28;20180;-68
2023/01/28 06:48:47;;;;;;;11.82;2.70;;;31.20;64.70;;;;;;5049516;28;20296;-74
2023/01/28 06:51:14;;;;;;;12.73;3.00;;;31.60;63.70;;;;;;5050717;28;20665;-72
2023/01/28 06:53:42;;;;;;;18.88;3.22;;;31.30;65.00;;;;;;5049897;28;20176;-68
2023/01/28 06:56:09;;;;;;;14.60;4.20;;;31.60;64.40;;;;;;5054268;28;20183;-69
2023/01/28 06:58:36;;;;;;;10.40;2.58;;;31.60;64.10;;;;;;5050847;28;20208;-85
2023/01/28 07:01:04;;;;;;;16.73;3.03;;;31.80;63.50;;;;;;5050686;28;20184;-70
2023/01/28 07:03:31;;;;;;;16.85;3.78;;;31.40;65.00;;;;;;5050754;28;20172;-74
2023/01/28 07:05:58;;;;;;;13.70;3.40;;;31.50;64.00;;;;;;5050221;28;20186;-71
2023/01/28 07:08:26;;;;;;;13.07;3.17;;;31.50;64.10;;;;;;5051078;28;20179;-75
2023/01/28 07:10:53;;;;;;;14.57;2.70;;;31.20;64.40;;;;;;5050789;28;20188;-71
2023/01/28 07:13:20;;;;;;;13.77;2.72;;;30.90;65.30;;;;;;5050226;28;20658;-68
2023/01/28 07:15:48;;;;;;;12.77;2.80;;;31.00;65.10;;;;;;5050765;28;20642;-70
2023/01/28 07:18:16;;;;;;;13.95;3.53;;;30.20;67.30;;;;;;5051199;28;20191;-68
2023/01/28 07:20:43;;;;;;;16.17;3.53;;;30.00;67.70;;;;;;5051478;28;20179;-68
2023/01/28 07:23:11;;;;;;;9.77;2.57;;;29.90;67.80;;;;;;5046939;28;20693;-70
2023/01/28 07:25:38;;;;;;;12.57;3.30;;;29.40;69.20;;;;;;5050652;28;20210;-69
2023/01/28 07:28:06;;;;;;;16.80;3.67;;;29.30;70.30;;;;;;5048654;28;20218;-76
2023/01/28 07:30:33;;;;;;;16.03;3.67;;;29.30;71.00;;;;;;5048741;28;20367;-69
2023/01/28 07:33:01;;;;;;;12.80;3.30;;;28.90;72.10;;;;;;5048012;28;20179;-72
2023/01/28 07:35:28;;;;;;;15.47;3.43;;;28.50;73.50;;;;;;5047776;28;20245;-74
2023/01/28 07:37:58;;;;;;;16.47;4.00;;;28.30;74.40;;;;;;5049420;28;20176;-73
2023/01/28 07:40:26;;;;;;;16.47;3.27;;;28.30;74.70;;;;;;5049489;28;20248;-72
2023/01/28 07:42:55;;;;;;;20.83;4.80;;;28.00;75.70;;;;;;5050649;28;20180;-69
2023/01/28 07:45:24;;;;;;;18.73;3.90;;;28.10;75.70;;;;;;5053789;28;20195;-72
2023/01/28 07:47:58;;;;;;;21.93;3.90;;;28.00;75.90;;;;;;5055265;28;20188;-72
2023/01/28 07:50:28;;;;;;;12.83;3.43;;;28.10;75.90;;;;;;5053977;28;20211;-73
2023/01/28 07:52:56;;;;;;;20.93;3.87;;;27.80;76.60;;;;;;5055388;28;20245;-69
2023/01/28 07:55:24;;;;;;;20.43;4.03;;;28.00;76.20;;;;;;5054561;28;20180;-72
2023/01/28 07:57:54;;;;;;;18.80;4.23;;;27.80;76.50;;;;;;5054304;28;20818;-71
2023/01/28 08:00:26;;;;;;;20.53;4.70;;;27.70;77.00;;;;;;5054709;28;20183;-70
2023/01/28 08:03:03;;;;;;;20.07;4.30;;;27.70;76.90;;;;;;5054614;28;20633;-68
2023/01/28 08:05:47;;;;;;;14.23;3.67;;;27.70;77.20;;;;;;5053671;28;20819;-71
2023/01/28 08:08:15;;;;;;;14.47;4.10;;;27.40;77.50;;;;;;5053578;28;20544;-69
2023/01/28 08:10:45;;;;;;;15.40;4.03;;;27.40;77.60;;;;;;5054386;28;20224;-68
2023/01/28 08:13:14;;;;;;;18.50;4.37;;;27.40;77.70;;;;;;5054382;28;20223;-73
2023/01/28 08:15:42;;;;;;;16.40;4.73;;;27.40;77.60;;;;;;5053676;28;20654;-71
2023/01/28 08:18:13;;;;;;;18.07;4.40;;;27.30;77.50;;;;;;5049530;28;20350;-74
2023/01/28 08:20:43;;;;;;;17.87;3.70;;;27.30;77.90;;;;;;5038005;28;20233;-72
2023/01/28 08:23:18;;;;;;;20.00;4.07;;;27.30;78.40;;;;;;5050086;28;20188;-77
2023/01/28 08:25:47;;;;;;;21.07;4.53;;;27.20;78.30;;;;;;5047972;28;20176;-71
2023/01/28 08:28:16;;;;;;;18.70;4.53;;;27.10;78.50;;;;;;5052705;28;20556;-75
2023/01/28 08:30:43;;;;;;;18.13;4.30;;;27.00;78.80;;;;;;5052492;28;20207;-72
2023/01/28 08:33:13;;;;;;;18.97;4.10;;;27.00;78.70;;;;;;5049682;28;20202;-73
2023/01/28 08:35:40;;;;;;;17.13;4.23;;;26.90;79.10;;;;;;5053446;28;20184;-72
2023/01/28 08:38:09;;;;;;;19.23;4.30;;;26.80;79.50;;;;;;5058069;28;20541;-72
2023/01/28 08:40:37;;;;;;;23.17;4.60;;;26.80;79.60;;;;;;5056360;28;20176;-73
2023/01/28 08:43:05;;;;;;;13.83;3.63;;;26.70;80.30;;;;;;5053093;28;20172;-74
2023/01/28 08:45:32;;;;;;;21.23;4.30;;;26.70;80.50;;;;;;5056653;28;20506;-76
2023/01/28 08:48:02;;;;;;;22.27;4.93;;;26.60;81.20;;;;;;5059506;28;20713;-71
2023/01/28 08:50:33;;;;;;;23.33;4.77;;;26.50;82.10;;;;;;5052779;28;20749;-72
2023/01/28 08:53:03;;;;;;;18.00;4.00;;;26.40;82.30;;;;;;5054758;28;20625;-77
2023/01/28 08:55:32;;;;;;;21.57;5.00;;;26.30;82.70;;;;;;5057090;28;20207;-74
2023/01/28 08:58:03;;;;;;;24.07;4.97;;;26.30;83.40;;;;;;5054793;28;20240;-77
2023/01/28 09:00:31;;;;;;;22.43;4.57;;;26.30;83.50;;;;;;5052643;28;20195;-76
2023/01/28 09:02:58;;;;;;;15.60;4.70;;;26.20;83.80;;;;;;5052444;28;20201;-74
2023/01/28 09:05:26;;;;;;;20.90;4.90;;;26.10;84.10;;;;;;5052926;28;20669;-73
2023/01/28 09:07:53;;;;;;;23.73;5.00;;;26.10;84.10;;;;;;5053309;28;20281;-81
2023/01/28 09:10:20;;;;;;;27.37;5.40;;;26.10;84.20;;;;;;5053018;28;20310;-77
2023/01/28 09:12:48;;;;;;;21.43;5.27;;;26.00;84.50;;;;;;5050528;28;20647;-73
2023/01/28 09:15:16;;;;;;;23.00;4.93;;;25.90;84.70;;;;;;5052549;28;20320;-77
2023/01/28 09:17:44;;;;;;;26.83;4.97;;;25.90;84.90;;;;;;5053278;28;20536;-75
2023/01/28 09:20:12;;;;;;;22.90;4.93;;;25.90;84.90;;;;;;5048843;28;20311;-76
2023/01/28 09:22:40;;;;;;;23.27;5.13;;;25.80;85.20;;;;;;5053049;28;20176;-72
2023/01/28 09:25:07;;;;;;;24.27;4.37;;;25.80;85.30;;;;;;5051876;28;20230;-74
2023/01/28 09:27:35;;;;;;;18.27;4.80;;;25.80;85.50;;;;;;5052589;28;20180;-79
2023/01/28 09:30:03;;;;;;;22.50;5.37;;;25.70;85.80;;;;;;5052586;28;20586;-71
2023/01/28 09:32:30;;;;;;;22.60;4.60;;;25.80;86.00;;;;;;5051197;28;20184;-73
2023/01/28 09:34:58;;;;;;;25.87;5.27;;;25.70;86.00;;;;;;5051994;28;20615;-77
2023/01/28 09:37:25;;;;;;;29.57;5.57;;;25.70;86.10;;;;;;5067331;28;20270;-76
2023/01/28 09:39:52;;;;;;;19.57;4.63;;;25.70;86.00;;;;;;5052112;28;20188;-72
2023/01/28 09:42:38;;;;;;;23.50;4.97;;;25.70;86.30;;;;;;5051786;28;20187;-73
2023/01/28 09:45:14;;;;;;;25.23;6.07;;;25.60;86.50;;;;;;5051428;28;20183;-75
2023/01/28 09:47:50;;;;;;;25.27;5.13;;;25.60;86.40;;;;;;5047383;28;20167;-72
2023/01/28 09:50:23;;;;;;;21.37;5.27;;;25.60;86.60;;;;;;5051762;28;20302;-72
2023/01/28 09:52:53;;;;;;;26.07;5.07;;;25.50;86.90;;;;;;5050834;28;20208;-74
2023/01/28 09:55:30;;;;;;;25.47;5.33;;;25.50;86.90;;;;;;5052652;28;20271;-70
2023/01/28 09:57:58;;;;;;;21.67;4.63;;;25.50;87.00;;;;;;5050660;28;20191;-70
2023/01/28 10:00:51;;;;;;;22.50;5.17;;;25.60;87.00;;;;;;5050578;28;20192;-70
2023/01/28 10:03:31;;;;;;;22.57;5.27;;;25.50;87.10;;;;;;5050885;28;20259;-68
2023/01/28 10:06:07;;;;;;;24.53;5.47;;;25.60;87.10;;;;;;5050654;28;20237;-74
2023/01/28 10:09:00;;;;;;;23.77;5.37;;;25.50;87.00;;;;;;5051887;28;20179;-71
2023/01/28 10:11:30;;;;;;;25.97;5.97;;;25.50;87.40;;;;;;5047743;28;20196;-72
2023/01/28 10:14:28;;;;;;;27.20;5.23;;;25.50;87.30;;;;;;5051266;28;20222;-75
2023/01/28 10:17:04;;;;;;;19.90;5.17;;;25.50;87.30;;;;;;5049270;28;20212;-72
2023/01/28 10:19:37;;;;;;;26.87;6.73;;;25.50;87.50;;;;;;5048768;28;20544;-71
2023/01/28 10:22:17;;;;;;;32.47;6.27;;;25.40;87.40;;;;;;5051420;28;20184;-74
2023/01/28 10:25:05;;;;;;;31.10;6.17;;;25.40;87.50;;;;;;5048707;28;20184;-72
2023/01/28 10:27:35;;;;;;;21.20;5.50;;;25.40;87.60;;;;;;5048913;28;20179;-69
2023/01/28 10:30:21;;;;;;;28.53;6.73;;;25.50;87.50;;;;;;5053159;28;20662;-70
2023/01/28 10:33:05;;;;;;;28.13;6.13;;;25.40;87.50;;;;;;5082069;28;20233;-72
2023/01/28 10:35:38;;;;;;;29.30;6.07;;;25.40;87.60;;;;;;5050891;28;20199;-72
2023/01/28 10:38:09;;;;;;;29.53;6.83;;;25.40;87.50;;;;;;5050751;28;20259;-69
2023/01/28 10:40:37;;;;;;;29.03;5.87;;;25.40;87.60;;;;;;5051128;28;20171;-69
2023/01/28 10:43:04;;;;;;;24.23;5.80;;;25.40;87.80;;;;;;5051139;28;20188;-69
2023/01/28 10:45:42;;;;;;;23.53;5.57;;;25.30;87.80;;;;;;5051406;28;20710;-71
2023/01/28 10:48:31;;;;;;;28.10;5.50;;;25.30;87.80;;;;;;5050022;28;20183;-77
2023/01/28 10:51:03;;;;;;;24.00;5.60;;;25.30;87.70;;;;;;5048658;28;20208;-71
2023/01/28 10:53:45;;;;;;;30.33;9.87;;;25.30;88.00;;;;;;5052560;28;20187;-70
2023/01/28 10:56:24;;;;;;;38.20;15.67;;;25.30;87.90;;;;;;5049662;28;20191;-72
2023/01/28 10:59:06;;;;;;;30.97;11.30;;;25.30;87.90;;;;;;5052139;28;20252;-72
2023/01/28 11:01:46;;;;;;;26.03;7.97;;;25.30;88.00;;;;;;5055788;28;20175;-75
2023/01/28 11:04:29;;;;;;;27.83;7.23;;;25.30;88.10;;;;;;5053395;28;20187;-70
2023/01/28 11:07:02;;;;;;;35.43;8.07;;;25.30;88.20;;;;;;5051895;28;20731;-72
2023/01/28 11:09:37;;;;;;;28.40;6.00;;;25.30;88.40;;;;;;5051407;28;20208;-72
2023/01/28 11:12:30;;;;;;;24.67;5.60;;;25.30;88.40;;;;;;5051150;28;20692;-71
2023/01/28 11:15:02;;;;;;;25.50;6.30;;;25.30;88.50;;;;;;5051173;28;20528;-70
2023/01/28 11:17:37;;;;;;;26.67;7.10;;;25.30;88.60;;;;;;5054154;28;20649;-76
2023/01/28 11:20:25;;;;;;;25.80;7.17;;;25.20;88.60;;;;;;5051004;28;20187;-73
2023/01/28 11:22:54;;;;;;;26.63;6.83;;;25.20;88.80;;;;;;5053683;28;20706;-69
2023/01/28 11:25:29;;;;;;;37.63;7.10;;;25.20;88.80;;;;;;5051793;28;20227;-76
2023/01/28 11:27:57;;;;;;;27.20;7.10;;;25.20;88.90;;;;;;5052092;28;20321;-77
2023/01/28 11:30:25;;;;;;;30.57;6.90;;;25.20;88.80;;;;;;5051546;28;20222;-71
2023/01/28 11:33:16;;;;;;;29.77;6.97;;;25.20;88.90;;;;;;5054252;28;20195;-71
2023/01/28 11:35:57;;;;;;;27.10;7.30;;;25.10;89.00;;;;;;5051404;28;20241;-72
2023/01/28 11:38:25;;;;;;;29.50;6.87;;;25.20;89.00;;;;;;5049523;28;20180;-69
2023/01/28 11:40:55;;;;;;;22.77;6.40;;;25.10;89.00;;;;;;5049552;28;20267;-70
2023/01/28 11:43:27;;;;;;;34.17;7.77;;;25.20;89.10;;;;;;5051272;28;20183;-71
2023/01/28 11:46:12;;;;;;;25.33;7.20;;;25.10;89.00;;;;;;5050632;28;20175;-71
2023/01/28 11:49:33;;;;;;;27.33;7.53;;;25.20;89.10;;;;;;5051336;28;20210;-71
2023/01/28 11:52:07;;;;;;;24.27;6.87;;;25.10;89.10;;;;;;5027963;28;20298;-70
2023/01/28 11:54:55;;;;;;;32.90;7.30;;;25.10;89.10;;;;;;5047989;28;20231;-71
2023/01/28 11:57:37;;;;;;;25.27;7.13;;;25.10;89.20;;;;;;5050301;28;20176;-68
2023/01/28 12:00:22;;;;;;;29.67;7.70;;;25.00;89.30;;;;;;5048644;28;20274;-71
2023/01/28 12:02:53;;;;;;;20.83;7.33;;;25.00;89.30;;;;;;5050522;28;20183;-69
2023/01/28 12:05:33;;;;;;;33.57;9.20;;;25.00;89.40;;;;;;5049609;28;20271;-71
2023/01/28 12:08:09;;;;;;;32.40;7.53;;;25.10;89.30;;;;;;5051166;28;20196;-74
2023/01/28 12:11:00;;;;;;;25.13;7.07;;;25.00;89.30;;;;;;5051055;28;20222;-79
2023/01/28 12:13:46;;;;;;;30.67;7.63;;;25.10;89.30;;;;;;5017463;28;20654;-70
2023/01/28 12:16:34;;;;;;;27.60;8.23;;;25.00;89.50;;;;;;5048717;28;20196;-71
2023/01/28 12:19:20;;;;;;;27.57;7.87;;;25.00;89.40;;;;;;5056698;28;20263;-70
2023/01/28 12:22:20;;;;;;;33.27;8.40;;;24.90;89.60;;;;;;5053964;28;20183;-68
2023/01/28 12:25:00;;;;;;;32.17;7.97;;;25.00;89.60;;;;;;5054774;28;20175;-69
2023/01/28 12:27:53;;;;;;;29.77;7.83;;;25.10;89.70;;;;;;5051078;28;20179;-69
2023/01/28 12:31:02;;;;;;;31.20;8.40;;;25.00;89.50;;;;;;5054998;28;20251;-69
2023/01/28 12:33:50;;;;;;;34.30;8.23;;;25.00;89.70;;;;;;5051905;28;21029;-70
2023/01/28 12:36:27;;;;;;;24.97;8.23;;;25.00;89.60;;;;;;5055128;28;20182;-68
2023/01/28 12:39:15;;;;;;;22.03;7.10;;;25.00;89.60;;;;;;5056334;28;20634;-68
2023/01/28 12:41:47;;;;;;;27.83;7.63;;;25.00;89.60;;;;;;5058537;28;20811;-70
2023/01/28 12:44:21;;;;;;;36.10;8.57;;;24.90;89.50;;;;;;5061147;28;20187;-71
2023/01/28 12:47:08;;;;;;;40.77;8.00;;;24.90;89.50;;;;;;5059093;28;20293;-69
2023/01/28 12:49:52;;;;;;;21.73;7.07;;;25.00;89.60;;;;;;5054356;28;20316;-71
2023/01/28 12:52:25;;;;;;;27.43;8.03;;;25.00;89.60;;;;;;5054455;28;20219;-69
2023/01/28 12:55:16;;;;;;;26.73;7.83;;;25.00;89.70;;;;;;5054763;28;20191;-72
2023/01/28 12:57:44;;;;;;;28.10;8.67;;;25.00;89.70;;;;;;5056918;28;20172;-72
2023/01/28 13:00:27;;;;;;;25.97;7.30;;;25.00;89.60;;;;;;5049622;28;20214;-71
2023/01/28 13:03:40;;;;;;;30.37;7.97;;;25.00;89.60;;;;;;5051557;28;20188;-75
2023/01/28 13:06:23;;;;;;;25.47;8.50;;;24.90;89.70;;;;;;5047734;28;20187;-72
2023/01/28 13:09:02;;;;;;;27.57;8.00;;;24.90;89.60;;;;;;5048234;28;20647;-69
2023/01/28 13:11:37;;;;;;;29.07;8.37;;;24.90;89.70;;;;;;5053262;28;20183;-71
2023/01/28 13:14:05;;;;;;;28.30;8.93;;;24.90;89.90;;;;;;5053456;28;20720;-71
2023/01/28 13:16:33;;;;;;;31.53;8.50;;;24.90;89.80;;;;;;5053841;28;20184;-69
2023/01/28 13:19:21;;;;;;;21.43;8.13;;;24.90;89.90;;;;;;5053297;28;20249;-77
2023/01/28 13:21:48;;;;;;;27.13;9.27;;;24.90;89.90;;;;;;5052189;28;20176;-70
2023/01/28 13:24:16;;;;;;;28.43;8.83;;;24.80;89.80;;;;;;5051790;28;20245;-70
2023/01/28 13:26:57;;;;;;;27.57;9.47;;;24.80;89.90;;;;;;5052960;28;20208;-72
2023/01/28 13:29:24;;;;;;;24.23;9.57;;;24.80;89.80;;;;;;5052609;28;20227;-73
2023/01/28 13:31:58;;;;;;;27.37;8.90;;;24.80;89.90;;;;;;5068486;28;20550;-73